Time;durP1;ratioP1;P1;durP2;ratioP2;P2;SDS_P1;SDS_P2;PMS_P1;PMS_P2;Temp;Humidity;BMP_temperature;BMP_pressure;BME280_temperature;BME280_humidity;BME280_pressure;Samples;Min_cycle;Max_cycle;Signal;HPM_P1;HPM_P2
2023/09/01 00:01:00;;;;;;;33.83;32.63;;;21.70;91.60;;;;;;4971728;28;20562;-52
2023/09/01 00:03:27;;;;;;;33.13;32.13;;;21.70;91.60;;;;;;4971745;28;20480;-52
2023/09/01 00:05:54;;;;;;;33.27;32.27;;;21.70;91.60;;;;;;4971436;28;20492;-54
2023/09/01 00:08:21;;;;;;;33.90;32.90;;;21.70;91.60;;;;;;4971454;28;20468;-54
2023/09/01 00:10:47;;;;;;;34.30;33.30;;;21.70;91.60;;;;;;4971639;28;20444;-49
2023/09/01 00:13:16;;;;;;;35.03;33.93;;;21.70;91.60;;;;;;4971391;28;20526;-53
2023/09/01 00:15:43;;;;;;;34.30;33.30;;;21.80;91.60;;;;;;4971299;28;20915;-49
2023/09/01 00:18:10;;;;;;;35.00;33.90;;;21.70;91.60;;;;;;4971481;28;20483;-50
2023/09/01 00:20:37;;;;;;;35.57;34.47;;;21.70;91.60;;;;;;4971194;28;20509;-50
2023/09/01 00:23:04;;;;;;;34.73;33.67;;;21.70;91.60;;;;;;4971328;28;20829;-51
2023/09/01 00:25:31;;;;;;;33.10;32.10;;;21.70;91.60;;;;;;4970838;28;20472;-49
2023/09/01 00:27:58;;;;;;;32.93;31.93;;;21.70;91.60;;;;;;4971450;28;20857;-49
2023/09/01 00:30:28;;;;;;;35.23;34.13;;;21.70;91.60;;;;;;4971366;28;20894;-50
2023/09/01 00:32:55;;;;;;;34.77;33.67;;;21.70;91.60;;;;;;4971284;28;20491;-49
2023/09/01 00:35:22;;;;;;;35.17;34.07;;;21.70;91.60;;;;;;4970919;28;20944;-51
2023/09/01 00:37:51;;;;;;;34.60;33.60;;;21.70;91.60;;;;;;4971025;28;20923;-50
2023/09/01 00:40:18;;;;;;;33.00;31.90;;;21.70;91.60;;;;;;4971080;28;20488;-54
2023/09/01 00:42:45;;;;;;;36.47;35.30;;;21.70;91.60;;;;;;4971260;28;20476;-49
2023/09/01 00:45:12;;;;;;;33.47;32.47;;;21.70;91.60;;;;;;4970595;28;20455;-50
2023/09/01 00:47:40;;;;;;;32.80;31.80;;;21.70;91.60;;;;;;4971094;28;20474;-51
2023/09/01 00:50:08;;;;;;;33.10;32.10;;;21.70;91.60;;;;;;4970974;28;20476;-49
2023/09/01 00:52:35;;;;;;;34.47;33.23;;;21.70;91.60;;;;;;4970891;28;20827;-49
2023/09/01 00:55:02;;;;;;;34.33;33.33;;;21.70;91.60;;;;;;4970667;28;20450;-50
2023/09/01 00:57:29;;;;;;;32.60;31.60;;;21.70;91.60;;;;;;4971128;28;20468;-52
2023/09/01 00:59:57;;;;;;;32.60;31.60;;;21.70;91.60;;;;;;4970694;28;20522;-50
2023/09/01 01:02:24;;;;;;;32.80;31.80;;;21.70;91.60;;;;;;4962966;28;20471;-50
2023/09/01 01:04:54;;;;;;;36.23;35.03;;;21.70;91.60;;;;;;4970393;28;20444;-51
2023/09/01 01:07:32;;;;;;;32.00;31.00;;;21.70;91.60;;;;;;4970583;28;20491;-49
2023/09/01 01:10:05;;;;;;;33.50;32.40;;;21.70;91.60;;;;;;4969734;28;20436;-50
2023/09/01 01:12:43;;;;;;;32.30;31.30;;;21.70;91.60;;;;;;4970661;28;20436;-49
2023/09/01 01:15:14;;;;;;;34.43;33.33;;;21.70;91.60;;;;;;4970228;28;20444;-53
2023/09/01 01:17:44;;;;;;;33.17;32.17;;;21.70;91.60;;;;;;4970507;28;20498;-52
2023/09/01 01:20:29;;;;;;;31.83;30.73;;;21.70;91.60;;;;;;4970317;28;20516;-49
2023/09/01 01:23:14;;;;;;;33.30;32.30;;;21.70;91.60;;;;;;4970612;28;20468;-50
2023/09/01 01:25:46;;;;;;;35.77;34.67;;;21.60;91.60;;;;;;4964692;28;20444;-51
2023/09/01 01:28:13;;;;;;;33.27;32.27;;;21.60;91.60;;;;;;4970439;28;20486;-49
2023/09/01 01:30:41;;;;;;;33.57;32.57;;;21.60;91.60;;;;;;4970373;28;20471;-50
2023/09/01 01:33:15;;;;;;;31.47;30.57;;;21.60;91.60;;;;;;4970178;28;20526;-49
2023/09/01 01:35:49;;;;;;;35.50;34.30;;;21.60;91.60;;;;;;4970169;28;20467;-49
2023/09/01 01:38:22;;;;;;;32.87;31.87;;;21.60;91.60;;;;;;4970104;28;20522;-49
2023/09/01 01:40:51;;;;;;;35.43;34.23;;;21.60;91.60;;;;;;4970316;28;20595;-50
2023/09/01 01:43:24;;;;;;;33.50;32.40;;;21.60;91.60;;;;;;4969995;28;20452;-52
2023/09/01 01:45:51;;;;;;;33.90;32.80;;;21.60;91.60;;;;;;4969802;28;20492;-50
2023/09/01 01:48:18;;;;;;;33.00;32.00;;;21.60;91.60;;;;;;4970001;28;20487;-50
2023/09/01 01:50:45;;;;;;;33.50;32.50;;;21.60;91.60;;;;;;4970077;28;20468;-51
2023/09/01 01:53:13;;;;;;;32.63;31.53;;;21.60;91.60;;;;;;4969931;28;20448;-51
2023/09/01 01:55:41;;;;;;;33.47;32.47;;;21.60;91.60;;;;;;4969797;28;20447;-52
2023/09/01 01:58:08;;;;;;;32.73;31.73;;;21.60;91.60;;;;;;4969947;28;20552;-54
2023/09/01 02:00:35;;;;;;;33.13;31.90;;;21.60;91.60;;;;;;4969875;28;20514;-51
2023/09/01 02:03:02;;;;;;;32.03;30.93;;;21.60;91.60;;;;;;4969800;28;20483;-54
2023/09/01 02:05:29;;;;;;;35.00;33.80;;;21.60;91.60;;;;;;4969799;28;20472;-53
2023/09/01 02:07:56;;;;;;;36.50;35.30;;;21.60;91.50;;;;;;4970044;28;20827;-51
2023/09/01 02:10:22;;;;;;;33.80;32.70;;;21.60;91.50;;;;;;4969727;28;20898;-51
2023/09/01 02:12:51;;;;;;;36.53;35.43;;;21.60;91.50;;;;;;4969783;28;20887;-52
2023/09/01 02:15:18;;;;;;;34.10;33.10;;;21.60;91.50;;;;;;4969523;28;20490;-53
2023/09/01 02:17:44;;;;;;;33.97;32.87;;;21.60;91.90;;;;;;4969715;28;20543;-50
2023/09/01 02:20:17;;;;;;;32.90;31.90;;;21.60;91.50;;;;;;4969378;28;20993;-52
2023/09/01 02:22:45;;;;;;;33.70;32.50;;;21.60;91.50;;;;;;4974948;28;20967;-52
2023/09/01 02:25:12;;;;;;;35.00;33.90;;;21.60;91.50;;;;;;4975748;28;20442;-51
2023/09/01 02:27:41;;;;;;;34.50;33.40;;;21.60;91.50;;;;;;4975982;28;20978;-50
2023/09/01 02:30:11;;;;;;;33.10;32.10;;;21.60;91.50;;;;;;4975874;28;20475;-51
2023/09/01 02:32:39;;;;;;;33.50;32.50;;;21.60;91.50;;;;;;4975923;28;20471;-52
2023/09/01 02:35:08;;;;;;;36.57;35.47;;;21.60;91.50;;;;;;4975773;28;20476;-50
2023/09/01 02:37:35;;;;;;;36.50;35.30;;;21.60;91.60;;;;;;4976034;28;20459;-55
2023/09/01 02:40:10;;;;;;;36.13;34.93;;;21.60;91.50;;;;;;4975832;28;20513;-52
2023/09/01 02:42:38;;;;;;;35.13;34.03;;;21.60;91.50;;;;;;4969287;28;20522;-53
2023/09/01 02:45:06;;;;;;;33.50;32.50;;;21.60;91.50;;;;;;4975590;28;20475;-50
2023/09/01 02:47:35;;;;;;;35.13;34.03;;;21.60;91.60;;;;;;4975855;28;20506;-53
2023/09/01 02:50:02;;;;;;;37.93;36.73;;;21.60;91.50;;;;;;4975760;28;20867;-52
2023/09/01 02:52:29;;;;;;;32.77;31.77;;;21.60;91.50;;;;;;4968044;28;20436;-55
2023/09/01 02:54:56;;;;;;;35.17;34.07;;;21.60;91.50;;;;;;4975647;28;20478;-52
2023/09/01 02:57:23;;;;;;;38.83;37.53;;;21.60;91.50;;;;;;4975544;28;20503;-52
2023/09/01 02:59:52;;;;;;;32.77;31.70;;;21.60;91.50;;;;;;4975562;28;20471;-53
2023/09/01 03:02:19;;;;;;;35.83;34.73;;;21.60;91.50;;;;;;4975528;28;20486;-51
2023/09/01 03:04:48;;;;;;;35.17;34.07;;;21.60;91.50;;;;;;4975527;28;20833;-53
2023/09/01 03:07:15;;;;;;;39.40;38.20;;;21.60;91.50;;;;;;4975421;28;20490;-53
2023/09/01 03:09:42;;;;;;;35.70;34.60;;;21.60;91.50;;;;;;4975493;28;20947;-52
2023/09/01 03:12:09;;;;;;;35.17;34.07;;;21.60;91.50;;;;;;4975383;28;20443;-55
2023/09/01 03:14:36;;;;;;;39.60;38.40;;;21.60;91.50;;;;;;4975359;28;20482;-50
2023/09/01 03:17:04;;;;;;;38.70;37.40;;;21.60;91.50;;;;;;4975301;28;20464;-52
2023/09/01 03:19:32;;;;;;;38.90;37.70;;;21.60;91.50;;;;;;4967910;28;20444;-50
2023/09/01 03:22:00;;;;;;;38.07;36.87;;;21.60;91.50;;;;;;4975360;28;20567;-50
2023/09/01 03:24:27;;;;;;;36.33;35.23;;;21.60;91.50;;;;;;4975225;28;20456;-50
2023/09/01 03:26:54;;;;;;;36.80;35.70;;;21.60;91.60;;;;;;4975230;28;20502;-53
2023/09/01 03:29:21;;;;;;;37.10;35.80;;;21.60;91.50;;;;;;4975125;28;20488;-52
2023/09/01 03:31:48;;;;;;;41.10;39.80;;;21.60;91.50;;;;;;4975323;28;20527;-50
2023/09/01 03:34:15;;;;;;;37.30;36.20;;;21.50;91.50;;;;;;4971530;28;20478;-50
2023/09/01 03:36:42;;;;;;;37.20;36.00;;;21.50;91.50;;;;;;4972052;28;20495;-50
2023/09/01 03:39:10;;;;;;;38.17;36.97;;;21.50;91.50;;;;;;4971986;28;20481;-50
2023/09/01 03:41:37;;;;;;;37.37;36.20;;;21.50;91.50;;;;;;4972059;28;20912;-51
2023/09/01 03:44:04;;;;;;;38.70;37.47;;;21.50;91.50;;;;;;4972027;28;20483;-52
2023/09/01 03:46:31;;;;;;;38.70;37.40;;;21.50;91.50;;;;;;4963815;28;20550;-53
2023/09/01 03:48:58;;;;;;;37.30;36.20;;;21.60;91.60;;;;;;4972071;28;20454;-52
2023/09/01 03:51:25;;;;;;;38.03;36.73;;;21.60;91.50;;;;;;4971920;28;20450;-49
2023/09/01 03:53:52;;;;;;;36.97;35.77;;;21.50;91.50;;;;;;4971995;28;20444;-51
2023/09/01 03:56:22;;;;;;;38.23;36.93;;;21.60;91.50;;;;;;4971461;28;21003;-50
2023/09/01 03:58:50;;;;;;;38.23;36.93;;;21.50;91.50;;;;;;4971734;28;20466;-53
2023/09/01 04:01:17;;;;;;;40.10;38.80;;;21.50;91.50;;;;;;4971469;28;20523;-52
2023/09/01 04:03:46;;;;;;;44.10;42.60;;;21.50;91.50;;;;;;4971663;28;20527;-51
2023/09/01 04:06:13;;;;;;;42.80;41.50;;;21.50;91.50;;;;;;4971349;28;20499;-51
2023/09/01 04:08:40;;;;;;;44.80;43.30;;;21.50;91.50;;;;;;4971570;28;20471;-52
2023/09/01 04:11:08;;;;;;;44.60;43.20;;;21.50;91.50;;;;;;4971470;28;20494;-49
2023/09/01 04:13:37;;;;;;;43.40;42.07;;;21.50;91.50;;;;;;4971684;28;20872;-55
2023/09/01 04:16:04;;;;;;;41.70;40.40;;;21.50;91.50;;;;;;4971202;28;20522;-50
2023/09/01 04:18:32;;;;;;;43.63;42.23;;;21.50;91.50;;;;;;4963533;28;21152;-54
2023/09/01 04:20:59;;;;;;;44.60;43.20;;;21.50;91.50;;;;;;4971312;28;20994;-51
2023/09/01 04:23:26;;;;;;;45.97;44.47;;;21.50;91.50;;;;;;4971166;28;20479;-54
2023/09/01 04:25:53;;;;;;;44.47;43.03;;;21.50;91.50;;;;;;4971311;28;20502;-53
2023/09/01 04:28:19;;;;;;;44.43;43.00;;;21.50;91.50;;;;;;4971276;28;20483;-53
2023/09/01 04:30:49;;;;;;;46.03;44.53;;;21.50;91.50;;;;;;4971408;28;20480;-52
2023/09/01 04:33:16;;;;;;;46.40;44.90;;;21.50;91.50;;;;;;4971036;28;20448;-51
2023/09/01 04:35:44;;;;;;;46.00;44.50;;;21.50;91.50;;;;;;4971004;28;20440;-52
2023/09/01 04:38:10;;;;;;;46.87;45.33;;;21.50;91.50;;;;;;4971063;28;20498;-56
2023/09/01 04:40:37;;;;;;;44.97;43.47;;;21.50;91.50;;;;;;4971125;28;20480;-54
2023/09/01 04:43:04;;;;;;;45.97;44.47;;;21.50;91.50;;;;;;4971171;28;21040;-54
2023/09/01 04:45:31;;;;;;;46.30;44.80;;;21.50;91.50;;;;;;4970558;28;20508;-56
2023/09/01 04:47:59;;;;;;;44.87;43.47;;;21.50;91.50;;;;;;4971056;28;20877;-52
2023/09/01 04:50:26;;;;;;;47.17;45.67;;;21.50;91.50;;;;;;4970979;28;20475;-51
2023/09/01 04:52:54;;;;;;;45.80;44.30;;;21.50;91.60;;;;;;4970892;28;20474;-54
2023/09/01 04:55:21;;;;;;;44.13;42.63;;;21.50;91.50;;;;;;4970697;28;20825;-53
2023/09/01 04:57:49;;;;;;;45.17;43.63;;;21.50;91.50;;;;;;4970870;28;20506;-51
2023/09/01 05:00:16;;;;;;;44.37;42.87;;;21.50;91.50;;;;;;4970646;28;20451;-52
2023/09/01 05:02:44;;;;;;;43.70;42.30;;;21.50;91.50;;;;;;4970752;28;20515;-55
2023/09/01 05:05:13;;;;;;;43.60;42.00;;;21.50;91.60;;;;;;4970391;28;20479;-51
2023/09/01 05:07:40;;;;;;;46.10;44.60;;;21.50;91.50;;;;;;4970598;28;20459;-52
2023/09/01 05:10:08;;;;;;;44.73;43.33;;;21.50;91.50;;;;;;4970710;28;21020;-49
2023/09/01 05:12:35;;;;;;;42.53;41.23;;;21.50;91.60;;;;;;4963165;28;20938;-53
2023/09/01 05:15:03;;;;;;;44.47;43.07;;;21.50;91.50;;;;;;4970623;28;20479;-50
2023/09/01 05:17:30;;;;;;;42.40;41.10;;;21.50;91.60;;;;;;4970652;28;20497;-56
2023/09/01 05:19:58;;;;;;;44.83;43.30;;;21.50;91.60;;;;;;4970630;28;20876;-52
2023/09/01 05:22:26;;;;;;;44.10;42.70;;;21.50;91.60;;;;;;4970418;28;20567;-52
2023/09/01 05:24:54;;;;;;;43.40;42.00;;;21.50;91.60;;;;;;4970327;28;20464;-52
2023/09/01 05:27:21;;;;;;;43.60;42.20;;;21.50;91.60;;;;;;4970198;28;21007;-54
2023/09/01 05:29:48;;;;;;;45.70;44.20;;;21.50;91.60;;;;;;4970595;28;20495;-50
2023/09/01 05:32:15;;;;;;;43.77;42.37;;;21.50;91.60;;;;;;4970284;28;20468;-52
2023/09/01 05:34:42;;;;;;;45.07;43.57;;;21.50;91.60;;;;;;4970201;28;20885;-53
2023/09/01 05:37:11;;;;;;;42.37;40.97;;;21.50;91.60;;;;;;4970237;28;20502;-49
2023/09/01 05:39:40;;;;;;;44.67;43.17;;;21.50;91.60;;;;;;4970293;28;20946;-49
2023/09/01 05:42:08;;;;;;;44.80;43.30;;;21.50;91.60;;;;;;4970259;28;20507;-50
2023/09/01 05:44:35;;;;;;;41.27;39.97;;;21.50;91.60;;;;;;4970124;28;20475;-50
2023/09/01 05:47:02;;;;;;;40.37;39.03;;;21.50;91.60;;;;;;4970225;28;20502;-49
2023/09/01 05:49:30;;;;;;;41.30;39.90;;;21.50;91.60;;;;;;4969992;28;20452;-49
2023/09/01 05:51:57;;;;;;;40.70;39.30;;;21.50;91.60;;;;;;4970155;28;20468;-50
2023/09/01 05:54:24;;;;;;;38.77;37.47;;;21.50;91.60;;;;;;4969834;28;20448;-51
2023/09/01 05:56:52;;;;;;;38.20;36.90;;;21.50;91.60;;;;;;4969221;28;20897;-49
2023/09/01 05:59:19;;;;;;;38.60;37.30;;;21.50;91.60;;;;;;4969725;28;20475;-49
2023/09/01 06:01:46;;;;;;;39.37;38.00;;;21.50;91.60;;;;;;4969884;28;20567;-49
2023/09/01 06:04:14;;;;;;;39.13;37.83;;;21.50;91.60;;;;;;4969835;28;20471;-49
2023/09/01 06:06:41;;;;;;;38.90;37.60;;;21.50;91.60;;;;;;4969679;28;20491;-50
2023/09/01 06:09:08;;;;;;;39.27;37.97;;;21.50;91.60;;;;;;4970001;28;20452;-49
2023/09/01 06:11:36;;;;;;;39.10;37.80;;;21.50;91.60;;;;;;4969797;28;20436;-50
2023/09/01 06:14:05;;;;;;;39.87;38.50;;;21.50;91.60;;;;;;4969872;28;20448;-49
2023/09/01 06:16:32;;;;;;;39.90;38.50;;;21.50;91.70;;;;;;4969502;28;20491;-49
2023/09/01 06:19:00;;;;;;;39.17;37.80;;;21.50;91.70;;;;;;4969859;28;20478;-51
2023/09/01 06:21:27;;;;;;;39.93;38.47;;;21.50;91.70;;;;;;4969722;28;20452;-50
2023/09/01 06:23:54;;;;;;;39.40;38.10;;;21.50;91.70;;;;;;4969804;28;20479;-54
2023/09/01 06:26:21;;;;;;;37.60;36.33;;;21.50;91.70;;;;;;4969292;28;20506;-51
2023/09/01 06:28:49;;;;;;;38.77;37.47;;;21.50;91.70;;;;;;4969578;28;20880;-49
2023/09/01 06:31:17;;;;;;;40.83;39.33;;;21.50;91.70;;;;;;4969527;28;20483;-50
2023/09/01 06:33:46;;;;;;;39.67;38.30;;;21.50;91.70;;;;;;4969735;28;20468;-51
2023/09/01 06:36:14;;;;;;;37.80;36.57;;;21.50;91.70;;;;;;4969122;28;20500;-50
2023/09/01 06:38:41;;;;;;;40.60;39.30;;;21.50;91.70;;;;;;4969396;28;20509;-49
2023/09/01 06:41:08;;;;;;;38.40;37.10;;;21.50;91.70;;;;;;4969470;28;20892;-50
2023/09/01 06:43:35;;;;;;;42.20;40.80;;;21.50;91.70;;;;;;4969172;28;20515;-50
2023/09/01 06:46:02;;;;;;;38.70;37.40;;;21.50;91.80;;;;;;4969405;28;20492;-49
2023/09/01 06:48:31;;;;;;;39.90;38.60;;;21.50;91.70;;;;;;4969359;28;20479;-50
2023/09/01 06:50:59;;;;;;;38.17;36.87;;;21.50;91.80;;;;;;4969420;28;20453;-50
2023/09/01 06:53:26;;;;;;;39.97;38.67;;;21.50;91.80;;;;;;4969313;28;20957;-50
2023/09/01 06:55:53;;;;;;;39.67;38.30;;;21.50;91.80;;;;;;4969055;28;20491;-49
2023/09/01 06:58:20;;;;;;;40.63;39.23;;;21.50;91.80;;;;;;4969091;28;20475;-52
2023/09/01 07:00:46;;;;;;;38.13;36.83;;;21.50;91.80;;;;;;4969310;28;20475;-51
2023/09/01 07:03:13;;;;;;;39.53;38.23;;;21.50;91.80;;;;;;4969069;28;20563;-50
2023/09/01 07:05:41;;;;;;;40.90;39.50;;;21.50;91.80;;;;;;4969006;28;20479;-52
2023/09/01 07:08:13;;;;;;;39.27;37.97;;;21.50;91.80;;;;;;4969401;28;20881;-51
2023/09/01 07:10:39;;;;;;;38.40;37.10;;;21.50;91.80;;;;;;4965062;28;20443;-50
2023/09/01 07:13:10;;;;;;;42.67;41.27;;;21.40;91.80;;;;;;4972615;28;20486;-50
2023/09/01 07:15:37;;;;;;;38.50;37.20;;;21.50;91.80;;;;;;4972090;28;20439;-50
2023/09/01 07:18:05;;;;;;;40.37;38.97;;;21.50;91.80;;;;;;4972380;28;20470;-49
2023/09/01 07:20:31;;;;;;;38.37;37.07;;;21.50;91.80;;;;;;4972357;28;20482;-51
2023/09/01 07:23:00;;;;;;;41.03;39.63;;;21.50;91.80;;;;;;4972434;28;20562;-50
2023/09/01 07:25:27;;;;;;;39.70;38.40;;;21.50;91.80;;;;;;4971978;28;20997;-49
2023/09/01 07:27:52;;;;;;;39.93;38.63;;;21.50;91.80;;;;;;4972242;28;20901;-49
2023/09/01 07:30:19;;;;;;;38.00;36.80;;;21.50;91.80;;;;;;4972061;28;20543;-50
2023/09/01 07:32:46;;;;;;;38.33;37.03;;;21.50;91.80;;;;;;4972132;28;20635;-50
2023/09/01 07:35:13;;;;;;;41.83;40.43;;;21.50;91.80;;;;;;4971940;28;20883;-50
2023/09/01 07:37:40;;;;;;;39.60;38.30;;;21.50;91.80;;;;;;4964321;28;20502;-50
2023/09/01 07:40:09;;;;;;;40.80;39.50;;;21.40;92.10;;;;;;4972085;28;20483;-51
2023/09/01 07:42:36;;;;;;;41.53;40.13;;;21.50;91.90;;;;;;4971773;28;21046;-50
2023/09/01 07:45:03;;;;;;;41.40;40.00;;;21.50;91.80;;;;;;4971792;28;21023;-51
2023/09/01 07:47:30;;;;;;;40.10;38.80;;;21.50;91.90;;;;;;4971802;28;20498;-50
2023/09/01 07:49:57;;;;;;;39.90;38.60;;;21.50;91.80;;;;;;4971838;28;20479;-54
2023/09/01 07:52:25;;;;;;;39.40;38.10;;;21.50;91.80;;;;;;4971688;28;20531;-50
2023/09/01 07:54:52;;;;;;;42.30;40.90;;;21.40;91.80;;;;;;4971753;28;20479;-51
2023/09/01 07:57:20;;;;;;;40.40;38.90;;;21.50;91.90;;;;;;4971639;28;20468;-49
2023/09/01 07:59:47;;;;;;;40.50;39.10;;;21.40;91.80;;;;;;4971662;28;20487;-50
2023/09/01 08:02:14;;;;;;;39.50;38.20;;;21.50;91.90;;;;;;4971581;28;20522;-52
2023/09/01 08:04:41;;;;;;;41.13;39.63;;;21.50;91.90;;;;;;4963640;28;20472;-50
2023/09/01 08:07:08;;;;;;;42.90;41.40;;;21.50;91.90;;;;;;4971633;28;20484;-51
2023/09/01 08:09:35;;;;;;;47.73;46.13;;;21.50;91.80;;;;;;4971620;28;20886;-50
2023/09/01 08:12:01;;;;;;;42.13;40.73;;;21.40;91.80;;;;;;4971641;28;20479;-53
2023/09/01 08:14:30;;;;;;;40.90;39.50;;;21.50;91.90;;;;;;4971441;28;20455;-50
2023/09/01 08:16:56;;;;;;;42.57;41.17;;;21.50;91.90;;;;;;4971396;28;20546;-55
2023/09/01 08:19:23;;;;;;;42.07;40.67;;;21.50;91.90;;;;;;4970778;28;20480;-51
2023/09/01 08:21:50;;;;;;;41.30;39.90;;;21.50;91.90;;;;;;4971571;28;20482;-48
2023/09/01 08:24:17;;;;;;;41.97;40.47;;;21.50;91.90;;;;;;4970894;28;20506;-50
2023/09/01 08:26:44;;;;;;;40.30;38.90;;;21.50;91.90;;;;;;4971275;28;20533;-48
2023/09/01 08:29:13;;;;;;;41.00;39.60;;;21.50;91.90;;;;;;4971342;28;20471;-49
2023/09/01 08:31:41;;;;;;;39.17;37.87;;;21.50;91.90;;;;;;4971230;28;20472;-48
2023/09/01 08:34:10;;;;;;;39.10;37.73;;;21.50;91.90;;;;;;4971189;28;20523;-49
2023/09/01 08:36:38;;;;;;;43.10;41.63;;;21.50;91.90;;;;;;4970960;28;21000;-48
2023/09/01 08:39:05;;;;;;;40.93;39.53;;;21.50;91.90;;;;;;4971057;28;20487;-48
2023/09/01 08:41:33;;;;;;;40.77;39.40;;;21.50;91.90;;;;;;4971077;28;20879;-49
2023/09/01 08:44:06;;;;;;;41.47;40.07;;;21.50;91.90;;;;;;4970907;28;21080;-48
2023/09/01 08:46:34;;;;;;;39.00;37.70;;;21.40;91.90;;;;;;4970764;28;20468;-49
2023/09/01 08:49:04;;;;;;;42.67;40.70;;;21.50;91.90;;;;;;4971028;28;20506;-49
2023/09/01 08:51:32;;;;;;;45.47;43.97;;;21.40;91.90;;;;;;4971054;28;20444;-48
2023/09/01 08:54:00;;;;;;;43.23;41.77;;;21.50;92.00;;;;;;4971068;28;20566;-48
2023/09/01 08:56:26;;;;;;;41.70;40.30;;;21.50;92.00;;;;;;4970576;28;20894;-49
2023/09/01 08:58:53;;;;;;;41.30;39.90;;;21.40;91.90;;;;;;4970987;28;20896;-49
2023/09/01 09:01:22;;;;;;;41.33;39.93;;;21.50;92.30;;;;;;4970647;28;20440;-49
2023/09/01 09:03:49;;;;;;;41.33;40.00;;;21.40;91.90;;;;;;4970762;28;20990;-52
2023/09/01 09:06:31;;;;;;;43.87;42.37;;;21.50;92.00;;;;;;4970675;28;20492;-47
2023/09/01 09:09:05;;;;;;;43.30;41.90;;;21.40;91.90;;;;;;4964904;28;20821;-49
2023/09/01 09:11:32;;;;;;;43.53;42.07;;;21.50;92.00;;;;;;4970814;28;20487;-49
2023/09/01 09:13:59;;;;;;;40.47;39.17;;;21.50;92.00;;;;;;4970673;28;20468;-50
2023/09/01 09:16:26;;;;;;;43.80;42.40;;;21.40;92.00;;;;;;4970404;28;20554;-47
2023/09/01 09:18:54;;;;;;;42.70;41.30;;;21.40;92.00;;;;;;4970747;28;20494;-49
2023/09/01 09:21:27;;;;;;;42.70;41.30;;;21.40;92.00;;;;;;4970431;28;20793;-48
2023/09/01 09:23:55;;;;;;;43.23;41.83;;;21.50;92.00;;;;;;4970475;28;20483;-48
2023/09/01 09:26:26;;;;;;;40.50;39.20;;;21.50;92.10;;;;;;4970175;28;20559;-48
2023/09/01 09:28:53;;;;;;;40.97;39.67;;;21.50;92.10;;;;;;4970670;28;20731;-50
2023/09/01 09:31:30;;;;;;;44.43;43.00;;;21.50;92.10;;;;;;4969315;28;20955;-47
2023/09/01 09:33:57;;;;;;;41.23;39.93;;;21.40;92.10;;;;;;4970486;28;20863;-48
2023/09/01 09:36:36;;;;;;;40.33;39.03;;;21.40;92.10;;;;;;4970104;28;20464;-48
2023/09/01 09:39:03;;;;;;;41.63;40.23;;;21.50;92.10;;;;;;4970258;28;20443;-47
2023/09/01 09:41:45;;;;;;;42.77;41.37;;;21.50;92.10;;;;;;4970210;28;20444;-47
2023/09/01 09:44:13;;;;;;;40.43;39.13;;;21.40;92.10;;;;;;4970313;28;20484;-50
2023/09/01 09:46:44;;;;;;;40.90;39.60;;;21.50;92.20;;;;;;4969943;28;20546;-48
2023/09/01 09:49:14;;;;;;;43.20;41.80;;;21.50;92.10;;;;;;4970222;28;20483;-47
2023/09/01 09:51:43;;;;;;;43.57;42.17;;;21.40;92.10;;;;;;4970037;28;20468;-49
2023/09/01 09:54:11;;;;;;;41.77;40.37;;;21.40;92.20;;;;;;4970049;28;20437;-46
2023/09/01 09:56:39;;;;;;;41.60;40.20;;;21.40;92.20;;;;;;4970027;28;20471;-48
2023/09/01 09:59:07;;;;;;;44.90;43.40;;;21.50;92.20;;;;;;4970046;28;20467;-48
2023/09/01 10:01:39;;;;;;;40.73;39.43;;;21.40;92.10;;;;;;4969928;28;20472;-48
2023/09/01 10:04:07;;;;;;;40.43;39.07;;;21.40;92.20;;;;;;4969976;28;20479;-49
2023/09/01 10:06:35;;;;;;;40.30;39.00;;;21.40;92.10;;;;;;4969481;28;20472;-47
2023/09/01 10:09:05;;;;;;;39.30;38.00;;;21.40;92.20;;;;;;4969773;28;20483;-48
2023/09/01 10:11:32;;;;;;;40.83;39.53;;;21.40;92.20;;;;;;4969795;28;20900;-50
2023/09/01 10:14:01;;;;;;;42.53;41.13;;;21.40;92.20;;;;;;4969783;28;20468;-48
2023/09/01 10:16:28;;;;;;;40.63;39.30;;;21.40;92.20;;;;;;4969433;28;20492;-49
2023/09/01 10:18:56;;;;;;;40.40;39.03;;;21.40;92.20;;;;;;4969895;28;20472;-47
2023/09/01 10:21:23;;;;;;;41.57;40.20;;;21.40;92.20;;;;;;4969890;28;21061;-48
2023/09/01 10:23:50;;;;;;;43.70;42.17;;;21.40;92.20;;;;;;4969661;28;20484;-48
2023/09/01 10:26:24;;;;;;;44.10;42.60;;;21.40;92.20;;;;;;5026881;22;20522;-49
2023/09/01 10:29:00;;;;;;;41.80;40.40;;;21.40;92.20;;;;;;5063692;28;20941;-49
2023/09/01 10:31:27;;;;;;;40.63;39.30;;;21.40;92.20;;;;;;5071134;28;20806;-49
2023/09/01 10:34:08;;;;;;;41.40;40.00;;;21.40;92.20;;;;;;5071098;28;20464;-51
2023/09/01 10:36:35;;;;;;;41.67;40.27;;;21.40;92.20;;;;;;5070724;28;20834;-50
2023/09/01 10:39:21;;;;;;;44.50;43.00;;;21.40;92.20;;;;;;5071113;28;20943;-50
2023/09/01 10:41:54;;;;;;;42.33;40.93;;;21.50;92.20;;;;;;5071246;28;20435;-51
2023/09/01 10:44:22;;;;;;;43.80;42.30;;;21.40;92.20;;;;;;5074867;28;21006;-50
2023/09/01 10:46:49;;;;;;;44.30;42.80;;;21.40;92.20;;;;;;5066988;28;20524;-49
2023/09/01 10:49:16;;;;;;;45.60;44.10;;;21.40;92.20;;;;;;5074971;28;20443;-48
2023/09/01 10:51:46;;;;;;;45.40;43.80;;;21.40;92.30;;;;;;5074894;28;20463;-49
2023/09/01 10:54:41;;;;;;;50.03;48.33;;;21.40;92.30;;;;;;5074805;28;20439;-50
2023/09/01 10:57:13;;;;;;;45.33;43.73;;;21.40;92.30;;;;;;5069285;28;20455;-51
2023/09/01 10:59:40;;;;;;;49.70;48.03;;;21.50;92.30;;;;;;5074662;28;20845;-49
2023/09/01 11:02:28;;;;;;;46.67;45.07;;;21.40;92.30;;;;;;5074836;28;20457;-50
2023/09/01 11:04:55;;;;;;;43.50;42.10;;;21.40;92.30;;;;;;5062868;28;20482;-49
2023/09/01 11:07:22;;;;;;;44.37;42.87;;;21.40;92.20;;;;;;5074624;28;20534;-49
2023/09/01 11:09:56;;;;;;;47.07;45.47;;;21.40;92.30;;;;;;5066444;28;20481;-54
2023/09/01 11:12:33;;;;;;;44.80;43.30;;;21.40;92.20;;;;;;5074564;28;20465;-48
2023/09/01 11:15:03;;;;;;;45.60;44.10;;;21.50;92.30;;;;;;5074309;28;20489;-50
2023/09/01 11:17:41;;;;;;;49.57;47.87;;;21.40;92.30;;;;;;5074149;28;20970;-50
2023/09/01 11:20:10;;;;;;;46.23;44.73;;;21.50;92.30;;;;;;5074237;28;20472;-50
2023/09/01 11:22:41;;;;;;;46.23;44.63;;;21.40;92.30;;;;;;5074317;28;20447;-51
2023/09/01 11:25:10;;;;;;;46.80;45.30;;;21.40;92.30;;;;;;5074030;28;20908;-49
2023/09/01 11:27:43;;;;;;;47.50;45.90;;;21.50;92.70;;;;;;5074178;28;20467;-49
2023/09/01 11:30:11;;;;;;;46.00;44.50;;;21.50;92.30;;;;;;5074176;28;20949;-50
2023/09/01 11:32:37;;;;;;;52.50;50.80;;;21.50;92.30;;;;;;5074092;28;20482;-49
2023/09/01 11:35:05;;;;;;;46.30;44.80;;;21.50;92.30;;;;;;5074019;28;20515;-53
2023/09/01 11:37:36;;;;;;;47.60;46.10;;;21.40;92.30;;;;;;5073906;28;21001;-54
2023/09/01 11:40:07;;;;;;;49.07;47.37;;;21.50;92.40;;;;;;5074009;28;20943;-54
2023/09/01 11:42:35;;;;;;;48.70;47.10;;;21.40;92.30;;;;;;5073878;28;20447;-49
2023/09/01 11:45:06;;;;;;;49.47;47.80;;;21.40;92.30;;;;;;5073724;28;20502;-50
2023/09/01 11:47:33;;;;;;;47.13;45.57;;;21.40;92.30;;;;;;5073630;28;20492;-49
2023/09/01 11:50:00;;;;;;;44.43;42.93;;;21.50;92.40;;;;;;5073958;28;20467;-50
2023/09/01 11:52:27;;;;;;;45.53;43.97;;;21.50;92.40;;;;;;5073615;28;20946;-49
2023/09/01 11:54:54;;;;;;;48.03;46.43;;;21.50;92.40;;;;;;5072664;28;20519;-50
2023/09/01 11:57:23;;;;;;;49.47;47.83;;;21.50;92.40;;;;;;5073605;28;20499;-49
2023/09/01 11:59:51;;;;;;;48.00;46.40;;;21.50;92.40;;;;;;5065498;28;20926;-50
2023/09/01 12:02:20;;;;;;;48.80;47.20;;;21.50;92.40;;;;;;5073577;28;20451;-50
2023/09/01 12:04:48;;;;;;;47.80;46.20;;;21.50;92.40;;;;;;5073169;28;20562;-50
2023/09/01 12:07:25;;;;;;;48.90;47.20;;;21.50;92.40;;;;;;5073413;28;20494;-49
2023/09/01 12:09:53;;;;;;;45.70;44.10;;;21.50;92.40;;;;;;5065494;28;20450;-50
2023/09/01 12:12:20;;;;;;;45.50;44.00;;;21.50;92.40;;;;;;5073420;28;20536;-50
2023/09/01 12:14:47;;;;;;;46.07;44.57;;;21.50;92.40;;;;;;5073009;28;20464;-50
2023/09/01 12:17:21;;;;;;;46.47;44.97;;;21.50;92.40;;;;;;5073229;28;20487;-50
2023/09/01 12:19:50;;;;;;;48.33;46.70;;;21.40;92.40;;;;;;5073360;28;20435;-52
2023/09/01 12:22:17;;;;;;;45.83;44.33;;;21.50;92.40;;;;;;5073144;28;20448;-49
2023/09/01 12:24:51;;;;;;;45.90;44.40;;;21.50;92.40;;;;;;5072856;28;20510;-49
2023/09/01 12:27:18;;;;;;;46.50;44.90;;;21.50;92.40;;;;;;5073055;28;20466;-48
2023/09/01 12:29:45;;;;;;;48.00;46.40;;;21.50;92.40;;;;;;5072942;28;20858;-48
2023/09/01 12:32:12;;;;;;;44.00;42.50;;;21.50;92.40;;;;;;5073047;28;20467;-48
2023/09/01 12:34:41;;;;;;;44.00;42.40;;;21.50;92.40;;;;;;5072686;28;20443;-51